sensor_id;sensor_type;location;lat;lon;timestamp;P1;durP1;ratioP1;P2;durP2;ratioP2
16478;SDS011;8350;52.316;10.530;2022-10-29T00:00:42;8.18;;;5.82;;
16478;SDS011;8350;52.316;10.530;2022-10-29T00:03:09;11.00;;;4.88;;
16478;SDS011;8350;52.316;10.530;2022-10-29T00:05:36;9.77;;;5.35;;
16478;SDS011;8350;52.316;10.530;2022-10-29T00:08:05;12.82;;;6.07;;
16478;SDS011;8350;52.316;10.530;2022-10-29T00:10:31;11.48;;;5.78;;
16478;SDS011;8350;52.316;10.530;2022-10-29T00:12:59;9.55;;;5.80;;
16478;SDS011;8350;52.316;10.530;2022-10-29T00:15:26;11.27;;;5.80;;
16478;SDS011;8350;52.316;10.530;2022-10-29T00:17:53;10.25;;;6.07;;
16478;SDS011;8350;52.316;10.530;2022-10-29T00:20:20;8.93;;;5.70;;
16478;SDS011;8350;52.316;10.530;2022-10-29T00:22:47;9.43;;;5.20;;
16478;SDS011;8350;52.316;10.530;2022-10-29T00:25:19;14.27;;;5.95;;
16478;SDS011;8350;52.316;10.530;2022-10-29T00:27:46;11.48;;;5.80;;
16478;SDS011;8350;52.316;10.530;2022-10-29T00:30:13;10.65;;;6.07;;
16478;SDS011;8350;52.316;10.530;2022-10-29T00:32:41;11.40;;;5.95;;
16478;SDS011;8350;52.316;10.530;2022-10-29T00:35:07;9.20;;;5.72;;
16478;SDS011;8350;52.316;10.530;2022-10-29T00:37:34;10.05;;;5.90;;
16478;SDS011;8350;52.316;10.530;2022-10-29T00:40:02;13.85;;;6.30;;
16478;SDS011;8350;52.316;10.530;2022-10-29T00:42:30;13.25;;;6.20;;
16478;SDS011;8350;52.316;10.530;2022-10-29T00:44:57;10.50;;;6.57;;
16478;SDS011;8350;52.316;10.530;2022-10-29T00:47:24;12.50;;;6.70;;
16478;SDS011;8350;52.316;10.530;2022-10-29T00:49:55;14.65;;;6.97;;
16478;SDS011;8350;52.316;10.530;2022-10-29T00:52:25;9.38;;;5.88;;
16478;SDS011;8350;52.316;10.530;2022-10-29T00:54:57;13.40;;;6.32;;
16478;SDS011;8350;52.316;10.530;2022-10-29T00:57:28;12.98;;;7.00;;
16478;SDS011;8350;52.316;10.530;2022-10-29T01:00:02;13.05;;;6.30;;
16478;SDS011;8350;52.316;10.530;2022-10-29T01:02:29;14.55;;;6.20;;
16478;SDS011;8350;52.316;10.530;2022-10-29T01:05:02;13.88;;;6.78;;
16478;SDS011;8350;52.316;10.530;2022-10-29T01:07:31;14.63;;;6.07;;
16478;SDS011;8350;52.316;10.530;2022-10-29T01:09:59;9.13;;;5.57;;
16478;SDS011;8350;52.316;10.530;2022-10-29T01:12:41;10.63;;;5.97;;
16478;SDS011;8350;52.316;10.530;2022-10-29T01:15:31;9.45;;;5.57;;
16478;SDS011;8350;52.316;10.530;2022-10-29T01:18:08;11.32;;;5.72;;
16478;SDS011;8350;52.316;10.530;2022-10-29T01:24:03;11.20;;;6.13;;
16478;SDS011;8350;52.316;10.530;2022-10-29T01:27:18;11.82;;;6.30;;
16478;SDS011;8350;52.316;10.530;2022-10-29T01:30:17;12.57;;;6.45;;
16478;SDS011;8350;52.316;10.530;2022-10-29T01:32:52;11.85;;;6.30;;
16478;SDS011;8350;52.316;10.530;2022-10-29T01:35:31;8.10;;;5.53;;
16478;SDS011;8350;52.316;10.530;2022-10-29T01:38:08;11.75;;;5.90;;
16478;SDS011;8350;52.316;10.530;2022-10-29T01:40:46;8.85;;;5.22;;
16478;SDS011;8350;52.316;10.530;2022-10-29T01:43:17;7.82;;;5.32;;
16478;SDS011;8350;52.316;10.530;2022-10-29T01:45:48;9.02;;;5.47;;
16478;SDS011;8350;52.316;10.530;2022-10-29T01:48:22;11.00;;;5.63;;
16478;SDS011;8350;52.316;10.530;2022-10-29T01:50:55;17.30;;;6.00;;
16478;SDS011;8350;52.316;10.530;2022-10-29T01:53:26;7.63;;;4.97;;
16478;SDS011;8350;52.316;10.530;2022-10-29T01:55:54;13.05;;;5.95;;
16478;SDS011;8350;52.316;10.530;2022-10-29T01:58:22;11.32;;;6.70;;
16478;SDS011;8350;52.316;10.530;2022-10-29T02:00:52;12.15;;;6.32;;
16478;SDS011;8350;52.316;10.530;2022-10-29T02:03:27;8.23;;;5.78;;
16478;SDS011;8350;52.316;10.530;2022-10-29T02:06:03;13.50;;;5.65;;
16478;SDS011;8350;52.316;10.530;2022-10-29T02:08:42;10.85;;;6.88;;
16478;SDS011;8350;52.316;10.530;2022-10-29T02:11:17;12.45;;;6.35;;
16478;SDS011;8350;52.316;10.530;2022-10-29T02:13:48;15.38;;;5.65;;
16478;SDS011;8350;52.316;10.530;2022-10-29T02:16:19;10.88;;;5.57;;
16478;SDS011;8350;52.316;10.530;2022-10-29T02:18:50;11.60;;;6.40;;
16478;SDS011;8350;52.316;10.530;2022-10-29T02:21:18;12.95;;;6.18;;
16478;SDS011;8350;52.316;10.530;2022-10-29T02:23:46;9.75;;;6.25;;
16478;SDS011;8350;52.316;10.530;2022-10-29T02:26:13;8.95;;;6.45;;
16478;SDS011;8350;52.316;10.530;2022-10-29T02:28:40;14.85;;;7.10;;
16478;SDS011;8350;52.316;10.530;2022-10-29T02:31:07;10.85;;;5.95;;
16478;SDS011;8350;52.316;10.530;2022-10-29T02:33:34;11.48;;;5.38;;
16478;SDS011;8350;52.316;10.530;2022-10-29T02:36:03;8.00;;;5.43;;
16478;SDS011;8350;52.316;10.530;2022-10-29T02:38:30;13.38;;;5.70;;
16478;SDS011;8350;52.316;10.530;2022-10-29T02:40:57;11.10;;;6.15;;
16478;SDS011;8350;52.316;10.530;2022-10-29T02:43:24;10.45;;;5.07;;
16478;SDS011;8350;52.316;10.530;2022-10-29T02:48:36;13.80;;;5.88;;
16478;SDS011;8350;52.316;10.530;2022-10-29T02:51:06;7.13;;;5.22;;
16478;SDS011;8350;52.316;10.530;2022-10-29T02:53:33;10.40;;;5.50;;
16478;SDS011;8350;52.316;10.530;2022-10-29T02:55:59;7.40;;;4.97;;
16478;SDS011;8350;52.316;10.530;2022-10-29T02:58:26;7.78;;;5.07;;
16478;SDS011;8350;52.316;10.530;2022-10-29T03:00:53;10.90;;;5.28;;
16478;SDS011;8350;52.316;10.530;2022-10-29T03:03:20;9.57;;;5.35;;
16478;SDS011;8350;52.316;10.530;2022-10-29T03:05:47;10.60;;;6.60;;
16478;SDS011;8350;52.316;10.530;2022-10-29T03:08:16;12.88;;;6.63;;
16478;SDS011;8350;52.316;10.530;2022-10-29T03:10:43;11.00;;;6.43;;
16478;SDS011;8350;52.316;10.530;2022-10-29T03:13:10;11.30;;;7.10;;
16478;SDS011;8350;52.316;10.530;2022-10-29T03:15:37;9.85;;;5.90;;
16478;SDS011;8350;52.316;10.530;2022-10-29T03:18:04;9.88;;;5.47;;
16478;SDS011;8350;52.316;10.530;2022-10-29T03:20:31;13.23;;;6.53;;
16478;SDS011;8350;52.316;10.530;2022-10-29T03:22:57;7.57;;;5.65;;
16478;SDS011;8350;52.316;10.530;2022-10-29T03:25:26;10.13;;;5.70;;
16478;SDS011;8350;52.316;10.530;2022-10-29T03:27:53;12.50;;;5.80;;
16478;SDS011;8350;52.316;10.530;2022-10-29T03:30:19;9.05;;;5.88;;
16478;SDS011;8350;52.316;10.530;2022-10-29T03:32:46;11.50;;;6.43;;
16478;SDS011;8350;52.316;10.530;2022-10-29T03:35:14;11.10;;;6.75;;
16478;SDS011;8350;52.316;10.530;2022-10-29T03:37:41;12.15;;;6.60;;
16478;SDS011;8350;52.316;10.530;2022-10-29T03:40:08;12.25;;;6.93;;
16478;SDS011;8350;52.316;10.530;2022-10-29T03:42:37;12.77;;;6.70;;
16478;SDS011;8350;52.316;10.530;2022-10-29T03:45:05;14.38;;;6.18;;
16478;SDS011;8350;52.316;10.530;2022-10-29T03:47:32;11.02;;;7.07;;
16478;SDS011;8350;52.316;10.530;2022-10-29T03:49:59;15.10;;;8.05;;
16478;SDS011;8350;52.316;10.530;2022-10-29T03:52:26;13.40;;;7.70;;
16478;SDS011;8350;52.316;10.530;2022-10-29T03:54:53;12.60;;;7.30;;
16478;SDS011;8350;52.316;10.530;2022-10-29T03:57:19;10.18;;;7.00;;
16478;SDS011;8350;52.316;10.530;2022-10-29T03:59:48;12.10;;;7.10;;
16478;SDS011;8350;52.316;10.530;2022-10-29T04:02:15;9.23;;;7.10;;
16478;SDS011;8350;52.316;10.530;2022-10-29T04:04:42;11.80;;;6.97;;
16478;SDS011;8350;52.316;10.530;2022-10-29T04:07:09;9.23;;;6.50;;
16478;SDS011;8350;52.316;10.530;2022-10-29T04:09:37;13.07;;;7.60;;
16478;SDS011;8350;52.316;10.530;2022-10-29T04:12:04;13.02;;;7.97;;
16478;SDS011;8350;52.316;10.530;2022-10-29T04:14:31;11.82;;;7.90;;
16478;SDS011;8350;52.316;10.530;2022-10-29T04:17:00;13.00;;;8.00;;
16478;SDS011;8350;52.316;10.530;2022-10-29T04:19:27;9.40;;;7.15;;
16478;SDS011;8350;52.316;10.530;2022-10-29T04:21:54;11.43;;;7.65;;
16478;SDS011;8350;52.316;10.530;2022-10-29T04:24:22;10.93;;;7.70;;
16478;SDS011;8350;52.316;10.530;2022-10-29T04:26:48;9.18;;;6.85;;
16478;SDS011;8350;52.316;10.530;2022-10-29T04:29:15;12.73;;;7.90;;
16478;SDS011;8350;52.316;10.530;2022-10-29T04:31:42;12.00;;;7.15;;
16478;SDS011;8350;52.316;10.530;2022-10-29T04:34:11;10.80;;;7.10;;
16478;SDS011;8350;52.316;10.530;2022-10-29T04:36:37;16.52;;;7.47;;
16478;SDS011;8350;52.316;10.530;2022-10-29T04:39:04;13.68;;;7.93;;
16478;SDS011;8350;52.316;10.530;2022-10-29T04:41:32;12.10;;;7.80;;
16478;SDS011;8350;52.316;10.530;2022-10-29T04:43:59;13.00;;;7.50;;
16478;SDS011;8350;52.316;10.530;2022-10-29T04:46:26;9.40;;;7.72;;
16478;SDS011;8350;52.316;10.530;2022-10-29T04:48:53;10.07;;;7.53;;
16478;SDS011;8350;52.316;10.530;2022-10-29T04:51:21;12.95;;;8.00;;
16478;SDS011;8350;52.316;10.530;2022-10-29T04:53:49;13.02;;;7.90;;
16478;SDS011;8350;52.316;10.530;2022-10-29T04:56:16;13.68;;;8.02;;
16478;SDS011;8350;52.316;10.530;2022-10-29T04:58:44;13.88;;;7.88;;
16478;SDS011;8350;52.316;10.530;2022-10-29T05:01:12;11.23;;;7.40;;
16478;SDS011;8350;52.316;10.530;2022-10-29T05:03:41;13.10;;;7.97;;
16478;SDS011;8350;52.316;10.530;2022-10-29T05:06:10;12.93;;;6.88;;
16478;SDS011;8350;52.316;10.530;2022-10-29T05:08:39;9.20;;;7.07;;
16478;SDS011;8350;52.316;10.530;2022-10-29T05:11:05;15.00;;;9.27;;
16478;SDS011;8350;52.316;10.530;2022-10-29T05:13:33;15.18;;;10.23;;
16478;SDS011;8350;52.316;10.530;2022-10-29T05:16:00;14.25;;;8.63;;
16478;SDS011;8350;52.316;10.530;2022-10-29T05:18:27;13.30;;;8.48;;
16478;SDS011;8350;52.316;10.530;2022-10-29T05:20:53;10.88;;;8.30;;
16478;SDS011;8350;52.316;10.530;2022-10-29T05:23:21;16.63;;;9.10;;
16478;SDS011;8350;52.316;10.530;2022-10-29T05:25:53;11.02;;;8.88;;
16478;SDS011;8350;52.316;10.530;2022-10-29T05:28:21;11.35;;;8.63;;
16478;SDS011;8350;52.316;10.530;2022-10-29T05:30:49;16.75;;;9.30;;
16478;SDS011;8350;52.316;10.530;2022-10-29T05:33:17;12.63;;;8.38;;
16478;SDS011;8350;52.316;10.530;2022-10-29T05:35:45;10.73;;;8.63;;
16478;SDS011;8350;52.316;10.530;2022-10-29T05:38:13;13.73;;;7.95;;
16478;SDS011;8350;52.316;10.530;2022-10-29T05:40:41;11.95;;;7.97;;
16478;SDS011;8350;52.316;10.530;2022-10-29T05:43:10;13.27;;;7.25;;
16478;SDS011;8350;52.316;10.530;2022-10-29T05:45:38;12.38;;;7.95;;
16478;SDS011;8350;52.316;10.530;2022-10-29T05:48:05;13.07;;;7.82;;
16478;SDS011;8350;52.316;10.530;2022-10-29T05:50:32;13.57;;;8.63;;
16478;SDS011;8350;52.316;10.530;2022-10-29T05:53:00;12.38;;;8.02;;
16478;SDS011;8350;52.316;10.530;2022-10-29T05:55:31;13.88;;;7.35;;
16478;SDS011;8350;52.316;10.530;2022-10-29T05:57:59;9.40;;;8.27;;
16478;SDS011;8350;52.316;10.530;2022-10-29T06:00:36;11.80;;;6.95;;
16478;SDS011;8350;52.316;10.530;2022-10-29T06:03:07;15.07;;;7.95;;
16478;SDS011;8350;52.316;10.530;2022-10-29T06:05:37;13.93;;;8.57;;
16478;SDS011;8350;52.316;10.530;2022-10-29T06:08:04;11.30;;;7.85;;
16478;SDS011;8350;52.316;10.530;2022-10-29T06:10:34;11.63;;;7.65;;
16478;SDS011;8350;52.316;10.530;2022-10-29T06:13:01;12.43;;;7.57;;
16478;SDS011;8350;52.316;10.530;2022-10-29T06:15:27;10.27;;;7.45;;
16478;SDS011;8350;52.316;10.530;2022-10-29T06:17:56;10.27;;;7.38;;
16478;SDS011;8350;52.316;10.530;2022-10-29T06:20:22;12.90;;;8.48;;
16478;SDS011;8350;52.316;10.530;2022-10-29T06:22:54;14.60;;;8.10;;
16478;SDS011;8350;52.316;10.530;2022-10-29T06:25:22;10.48;;;7.43;;
16478;SDS011;8350;52.316;10.530;2022-10-29T06:27:56;12.95;;;7.43;;
16478;SDS011;8350;52.316;10.530;2022-10-29T06:30:27;12.20;;;8.65;;
16478;SDS011;8350;52.316;10.530;2022-10-29T06:32:55;12.35;;;8.05;;
16478;SDS011;8350;52.316;10.530;2022-10-29T06:35:22;9.88;;;8.15;;
16478;SDS011;8350;52.316;10.530;2022-10-29T06:37:49;15.32;;;8.85;;
16478;SDS011;8350;52.316;10.530;2022-10-29T06:40:16;14.73;;;7.78;;
16478;SDS011;8350;52.316;10.530;2022-10-29T06:42:43;11.82;;;8.32;;
16478;SDS011;8350;52.316;10.530;2022-10-29T06:45:13;13.13;;;8.95;;
16478;SDS011;8350;52.316;10.530;2022-10-29T06:47:42;14.07;;;8.60;;
16478;SDS011;8350;52.316;10.530;2022-10-29T06:50:12;14.73;;;9.95;;
16478;SDS011;8350;52.316;10.530;2022-10-29T06:52:40;10.88;;;8.70;;
16478;SDS011;8350;52.316;10.530;2022-10-29T06:55:09;15.07;;;10.02;;
16478;SDS011;8350;52.316;10.530;2022-10-29T06:57:36;14.00;;;9.63;;
16478;SDS011;8350;52.316;10.530;2022-10-29T07:00:06;17.23;;;9.32;;
16478;SDS011;8350;52.316;10.530;2022-10-29T07:02:34;14.75;;;8.73;;
16478;SDS011;8350;52.316;10.530;2022-10-29T07:05:01;12.00;;;8.65;;
16478;SDS011;8350;52.316;10.530;2022-10-29T07:07:29;11.93;;;7.95;;
16478;SDS011;8350;52.316;10.530;2022-10-29T07:09:56;11.93;;;8.20;;
16478;SDS011;8350;52.316;10.530;2022-10-29T07:12:23;12.60;;;9.00;;
16478;SDS011;8350;52.316;10.530;2022-10-29T07:14:50;12.00;;;8.25;;
16478;SDS011;8350;52.316;10.530;2022-10-29T07:17:17;12.88;;;8.60;;
16478;SDS011;8350;52.316;10.530;2022-10-29T07:19:44;12.07;;;9.15;;
16478;SDS011;8350;52.316;10.530;2022-10-29T07:22:10;11.52;;;8.00;;
16478;SDS011;8350;52.316;10.530;2022-10-29T07:24:39;13.73;;;9.38;;
16478;SDS011;8350;52.316;10.530;2022-10-29T07:27:12;11.43;;;9.05;;
16478;SDS011;8350;52.316;10.530;2022-10-29T07:29:39;11.85;;;9.57;;
16478;SDS011;8350;52.316;10.530;2022-10-29T07:32:06;19.02;;;10.95;;
16478;SDS011;8350;52.316;10.530;2022-10-29T07:34:34;16.08;;;10.07;;
16478;SDS011;8350;52.316;10.530;2022-10-29T07:37:01;15.60;;;10.95;;
16478;SDS011;8350;52.316;10.530;2022-10-29T07:39:28;19.83;;;10.90;;
16478;SDS011;8350;52.316;10.530;2022-10-29T07:41:56;15.43;;;10.43;;
16478;SDS011;8350;52.316;10.530;2022-10-29T07:44:23;15.15;;;11.10;;
16478;SDS011;8350;52.316;10.530;2022-10-29T07:46:50;17.38;;;12.23;;
16478;SDS011;8350;52.316;10.530;2022-10-29T07:49:17;19.77;;;11.50;;
16478;SDS011;8350;52.316;10.530;2022-10-29T07:51:46;19.65;;;11.55;;
16478;SDS011;8350;52.316;10.530;2022-10-29T07:54:13;15.43;;;11.20;;
16478;SDS011;8350;52.316;10.530;2022-10-29T07:56:43;18.30;;;12.00;;
16478;SDS011;8350;52.316;10.530;2022-10-29T07:59:11;16.15;;;11.13;;
16478;SDS011;8350;52.316;10.530;2022-10-29T08:01:39;17.60;;;11.65;;
16478;SDS011;8350;52.316;10.530;2022-10-29T08:04:06;17.23;;;11.52;;
16478;SDS011;8350;52.316;10.530;2022-10-29T08:06:36;14.43;;;10.80;;
16478;SDS011;8350;52.316;10.530;2022-10-29T08:09:03;19.38;;;11.65;;
16478;SDS011;8350;52.316;10.530;2022-10-29T08:11:29;17.65;;;12.30;;
16478;SDS011;8350;52.316;10.530;2022-10-29T08:13:57;19.40;;;11.82;;
16478;SDS011;8350;52.316;10.530;2022-10-29T08:16:25;21.67;;;11.85;;
16478;SDS011;8350;52.316;10.530;2022-10-29T08:18:52;18.23;;;11.48;;
16478;SDS011;8350;52.316;10.530;2022-10-29T08:21:22;20.88;;;11.50;;
16478;SDS011;8350;52.316;10.530;2022-10-29T08:23:49;17.00;;;11.43;;
16478;SDS011;8350;52.316;10.530;2022-10-29T08:26:15;17.58;;;10.55;;
16478;SDS011;8350;52.316;10.530;2022-10-29T08:28:44;18.15;;;10.38;;
16478;SDS011;8350;52.316;10.530;2022-10-29T08:31:11;14.70;;;9.75;;
16478;SDS011;8350;52.316;10.530;2022-10-29T08:33:39;13.00;;;8.65;;
16478;SDS011;8350;52.316;10.530;2022-10-29T08:36:06;12.75;;;8.35;;
16478;SDS011;8350;52.316;10.530;2022-10-29T08:38:33;17.77;;;9.43;;
16478;SDS011;8350;52.316;10.530;2022-10-29T08:41:05;13.55;;;8.48;;
16478;SDS011;8350;52.316;10.530;2022-10-29T08:43:51;11.38;;;8.48;;
16478;SDS011;8350;52.316;10.530;2022-10-29T08:46:29;14.23;;;9.45;;
16478;SDS011;8350;52.316;10.530;2022-10-29T08:49:09;17.67;;;10.05;;
16478;SDS011;8350;52.316;10.530;2022-10-29T08:51:40;13.15;;;7.97;;
16478;SDS011;8350;52.316;10.530;2022-10-29T08:54:10;18.48;;;9.82;;
16478;SDS011;8350;52.316;10.530;2022-10-29T08:56:42;13.63;;;8.65;;
16478;SDS011;8350;52.316;10.530;2022-10-29T08:59:13;13.25;;;8.43;;
16478;SDS011;8350;52.316;10.530;2022-10-29T09:01:42;14.18;;;8.57;;
16478;SDS011;8350;52.316;10.530;2022-10-29T09:04:20;10.43;;;7.75;;
16478;SDS011;8350;52.316;10.530;2022-10-29T09:06:59;12.02;;;8.20;;
16478;SDS011;8350;52.316;10.530;2022-10-29T09:09:36;16.55;;;9.35;;
16478;SDS011;8350;52.316;10.530;2022-10-29T09:15:15;12.35;;;8.13;;
16478;SDS011;8350;52.316;10.530;2022-10-29T09:17:54;14.23;;;7.70;;
16478;SDS011;8350;52.316;10.530;2022-10-29T09:20:42;16.05;;;9.05;;
16478;SDS011;8350;52.316;10.530;2022-10-29T09:23:20;13.43;;;8.70;;
16478;SDS011;8350;52.316;10.530;2022-10-29T09:25:52;15.98;;;9.23;;
16478;SDS011;8350;52.316;10.530;2022-10-29T09:28:30;14.40;;;8.98;;
16478;SDS011;8350;52.316;10.530;2022-10-29T09:31:05;13.80;;;9.35;;
16478;SDS011;8350;52.316;10.530;2022-10-29T09:33:39;14.90;;;9.13;;
16478;SDS011;8350;52.316;10.530;2022-10-29T09:36:12;14.65;;;8.98;;
16478;SDS011;8350;52.316;10.530;2022-10-29T09:38:45;13.57;;;7.93;;
16478;SDS011;8350;52.316;10.530;2022-10-29T09:41:18;14.40;;;8.20;;
16478;SDS011;8350;52.316;10.530;2022-10-29T09:43:51;13.25;;;7.22;;
16478;SDS011;8350;52.316;10.530;2022-10-29T09:46:27;13.65;;;7.72;;
16478;SDS011;8350;52.316;10.530;2022-10-29T09:49:02;13.15;;;8.27;;
16478;SDS011;8350;52.316;10.530;2022-10-29T09:51:41;10.85;;;7.57;;
16478;SDS011;8350;52.316;10.530;2022-10-29T09:54:15;11.00;;;7.30;;
16478;SDS011;8350;52.316;10.530;2022-10-29T09:56:43;14.48;;;7.45;;
16478;SDS011;8350;52.316;10.530;2022-10-29T09:59:15;12.00;;;7.05;;
16478;SDS011;8350;52.316;10.530;2022-10-29T10:01:50;12.75;;;6.47;;
16478;SDS011;8350;52.316;10.530;2022-10-29T10:04:19;12.43;;;7.63;;
16478;SDS011;8350;52.316;10.530;2022-10-29T10:07:02;18.02;;;7.68;;
16478;SDS011;8350;52.316;10.530;2022-10-29T10:09:53;14.77;;;7.20;;
16478;SDS011;8350;52.316;10.530;2022-10-29T10:12:25;12.75;;;7.07;;
16478;SDS011;8350;52.316;10.530;2022-10-29T10:15:06;13.75;;;7.15;;
16478;SDS011;8350;52.316;10.530;2022-10-29T10:17:52;18.83;;;8.02;;
16478;SDS011;8350;52.316;10.530;2022-10-29T10:20:28;12.85;;;7.18;;
16478;SDS011;8350;52.316;10.530;2022-10-29T10:23:07;16.80;;;7.97;;
16478;SDS011;8350;52.316;10.530;2022-10-29T10:25:48;13.00;;;6.68;;
16478;SDS011;8350;52.316;10.530;2022-10-29T10:28:16;11.27;;;7.50;;
16478;SDS011;8350;52.316;10.530;2022-10-29T10:30:45;15.07;;;6.90;;
16478;SDS011;8350;52.316;10.530;2022-10-29T10:33:32;9.45;;;7.13;;
16478;SDS011;8350;52.316;10.530;2022-10-29T10:36:01;11.95;;;6.90;;
16478;SDS011;8350;52.316;10.530;2022-10-29T10:38:38;11.20;;;6.43;;
16478;SDS011;8350;52.316;10.530;2022-10-29T10:41:06;10.45;;;6.97;;
16478;SDS011;8350;52.316;10.530;2022-10-29T10:43:36;11.93;;;7.32;;
16478;SDS011;8350;52.316;10.530;2022-10-29T10:46:10;12.60;;;6.75;;
16478;SDS011;8350;52.316;10.530;2022-10-29T10:48:39;16.80;;;7.00;;
16478;SDS011;8350;52.316;10.530;2022-10-29T10:51:14;11.68;;;6.40;;
16478;SDS011;8350;52.316;10.530;2022-10-29T10:53:47;11.20;;;6.68;;
16478;SDS011;8350;52.316;10.530;2022-10-29T10:56:16;11.57;;;7.00;;
16478;SDS011;8350;52.316;10.530;2022-10-29T10:58:46;10.77;;;6.05;;
16478;SDS011;8350;52.316;10.530;2022-10-29T11:01:19;11.43;;;6.65;;
16478;SDS011;8350;52.316;10.530;2022-10-29T11:03:53;10.73;;;6.75;;
16478;SDS011;8350;52.316;10.530;2022-10-29T11:06:27;14.18;;;6.95;;
16478;SDS011;8350;52.316;10.530;2022-10-29T11:09:00;12.02;;;7.13;;
16478;SDS011;8350;52.316;10.530;2022-10-29T11:11:34;12.13;;;7.97;;
16478;SDS011;8350;52.316;10.530;2022-10-29T11:14:06;14.43;;;6.72;;
16478;SDS011;8350;52.316;10.530;2022-10-29T11:16:40;12.63;;;6.57;;
16478;SDS011;8350;52.316;10.530;2022-10-29T11:19:13;14.60;;;6.93;;
16478;SDS011;8350;52.316;10.530;2022-10-29T11:21:51;11.90;;;6.20;;
16478;SDS011;8350;52.316;10.530;2022-10-29T11:24:29;14.30;;;6.45;;
16478;SDS011;8350;52.316;10.530;2022-10-29T11:27:05;16.20;;;7.05;;
16478;SDS011;8350;52.316;10.530;2022-10-29T11:29:44;9.80;;;6.60;;
16478;SDS011;8350;52.316;10.530;2022-10-29T11:32:18;13.75;;;7.53;;
16478;SDS011;8350;52.316;10.530;2022-10-29T11:34:50;13.45;;;7.07;;
16478;SDS011;8350;52.316;10.530;2022-10-29T11:37:26;13.52;;;6.90;;
16478;SDS011;8350;52.316;10.530;2022-10-29T11:40:00;13.05;;;7.47;;
16478;SDS011;8350;52.316;10.530;2022-10-29T11:42:29;17.58;;;8.23;;
16478;SDS011;8350;52.316;10.530;2022-10-29T11:45:00;16.27;;;7.50;;
16478;SDS011;8350;52.316;10.530;2022-10-29T11:47:32;12.80;;;7.63;;
16478;SDS011;8350;52.316;10.530;2022-10-29T11:50:16;13.65;;;8.48;;
16478;SDS011;8350;52.316;10.530;2022-10-29T11:52:57;12.30;;;7.65;;
16478;SDS011;8350;52.316;10.530;2022-10-29T11:55:37;12.15;;;8.50;;
16478;SDS011;8350;52.316;10.530;2022-10-29T11:58:15;14.00;;;8.13;;
16478;SDS011;8350;52.316;10.530;2022-10-29T12:00:49;13.82;;;7.55;;
16478;SDS011;8350;52.316;10.530;2022-10-29T12:03:39;18.63;;;7.30;;
16478;SDS011;8350;52.316;10.530;2022-10-29T12:06:31;11.93;;;7.55;;
16478;SDS011;8350;52.316;10.530;2022-10-29T12:12:16;10.70;;;6.65;;
16478;SDS011;8350;52.316;10.530;2022-10-29T12:14:53;14.80;;;7.28;;
16478;SDS011;8350;52.316;10.530;2022-10-29T12:17:30;12.45;;;7.00;;
16478;SDS011;8350;52.316;10.530;2022-10-29T12:20:10;15.52;;;7.35;;
16478;SDS011;8350;52.316;10.530;2022-10-29T12:22:49;14.68;;;7.32;;
16478;SDS011;8350;52.316;10.530;2022-10-29T12:25:27;12.43;;;7.13;;
16478;SDS011;8350;52.316;10.530;2022-10-29T12:28:05;13.15;;;7.18;;
16478;SDS011;8350;52.316;10.530;2022-10-29T12:30:44;14.07;;;7.03;;
16478;SDS011;8350;52.316;10.530;2022-10-29T12:33:17;12.52;;;6.55;;
16478;SDS011;8350;52.316;10.530;2022-10-29T12:35:50;18.77;;;7.90;;
16478;SDS011;8350;52.316;10.530;2022-10-29T12:38:24;11.00;;;6.40;;
16478;SDS011;8350;52.316;10.530;2022-10-29T12:41:01;12.55;;;7.47;;
16478;SDS011;8350;52.316;10.530;2022-10-29T12:43:38;14.95;;;7.10;;
16478;SDS011;8350;52.316;10.530;2022-10-29T12:46:12;11.65;;;6.78;;
16478;SDS011;8350;52.316;10.530;2022-10-29T12:48:55;10.20;;;6.97;;
16478;SDS011;8350;52.316;10.530;2022-10-29T12:51:34;12.55;;;6.93;;
16478;SDS011;8350;52.316;10.530;2022-10-29T12:54:16;11.10;;;6.20;;
16478;SDS011;8350;52.316;10.530;2022-10-29T12:56:50;14.40;;;5.90;;
16478;SDS011;8350;52.316;10.530;2022-10-29T12:59:27;11.82;;;6.13;;
16478;SDS011;8350;52.316;10.530;2022-10-29T13:05:18;12.23;;;6.85;;
16478;SDS011;8350;52.316;10.530;2022-10-29T13:10:58;10.27;;;6.68;;
16478;SDS011;8350;52.316;10.530;2022-10-29T13:13:35;10.88;;;6.32;;
16478;SDS011;8350;52.316;10.530;2022-10-29T13:16:18;9.77;;;6.90;;
16478;SDS011;8350;52.316;10.530;2022-10-29T13:18:53;10.93;;;6.80;;
16478;SDS011;8350;52.316;10.530;2022-10-29T13:24:19;10.73;;;6.05;;
16478;SDS011;8350;52.316;10.530;2022-10-29T13:26:53;10.50;;;6.57;;
16478;SDS011;8350;52.316;10.530;2022-10-29T13:35:03;11.95;;;6.07;;
16478;SDS011;8350;52.316;10.530;2022-10-29T13:37:51;16.98;;;6.18;;
16478;SDS011;8350;52.316;10.530;2022-10-29T13:43:25;13.18;;;6.03;;
16478;SDS011;8350;52.316;10.530;2022-10-29T13:46:03;9.88;;;5.70;;
16478;SDS011;8350;52.316;10.530;2022-10-29T13:48:49;15.48;;;6.18;;
16478;SDS011;8350;52.316;10.530;2022-10-29T13:51:18;10.77;;;5.57;;
16478;SDS011;8350;52.316;10.530;2022-10-29T13:53:53;9.98;;;5.63;;
16478;SDS011;8350;52.316;10.530;2022-10-29T13:56:26;15.65;;;6.10;;
16478;SDS011;8350;52.316;10.530;2022-10-29T13:58:58;9.43;;;5.22;;
16478;SDS011;8350;52.316;10.530;2022-10-29T14:01:27;11.63;;;5.53;;
16478;SDS011;8350;52.316;10.530;2022-10-29T14:04:00;11.52;;;4.82;;
16478;SDS011;8350;52.316;10.530;2022-10-29T14:06:31;12.70;;;5.43;;
16478;SDS011;8350;52.316;10.530;2022-10-29T14:09:05;11.43;;;5.00;;
16478;SDS011;8350;52.316;10.530;2022-10-29T14:11:42;11.25;;;5.18;;
16478;SDS011;8350;52.316;10.530;2022-10-29T14:14:21;9.63;;;5.10;;
16478;SDS011;8350;52.316;10.530;2022-10-29T14:19:41;13.30;;;4.13;;
16478;SDS011;8350;52.316;10.530;2022-10-29T14:28:09;12.43;;;4.05;;
16478;SDS011;8350;52.316;10.530;2022-10-29T14:30:41;10.45;;;4.75;;
16478;SDS011;8350;52.316;10.530;2022-10-29T14:33:18;9.98;;;4.82;;
16478;SDS011;8350;52.316;10.530;2022-10-29T14:35:50;8.50;;;4.35;;
16478;SDS011;8350;52.316;10.530;2022-10-29T14:38:21;9.88;;;4.65;;
16478;SDS011;8350;52.316;10.530;2022-10-29T14:40:53;9.13;;;4.38;;
16478;SDS011;8350;52.316;10.530;2022-10-29T14:43:21;8.70;;;4.10;;
16478;SDS011;8350;52.316;10.530;2022-10-29T14:45:51;8.73;;;4.68;;
16478;SDS011;8350;52.316;10.530;2022-10-29T14:48:19;9.57;;;4.45;;
16478;SDS011;8350;52.316;10.530;2022-10-29T14:50:48;11.27;;;4.43;;
16478;SDS011;8350;52.316;10.530;2022-10-29T14:53:25;11.02;;;4.45;;
16478;SDS011;8350;52.316;10.530;2022-10-29T14:55:55;9.23;;;4.50;;
16478;SDS011;8350;52.316;10.530;2022-10-29T14:58:24;9.80;;;4.90;;
16478;SDS011;8350;52.316;10.530;2022-10-29T15:00:55;7.55;;;4.53;;
16478;SDS011;8350;52.316;10.530;2022-10-29T15:03:24;8.85;;;4.78;;
16478;SDS011;8350;52.316;10.530;2022-10-29T15:06:10;12.80;;;5.47;;
16478;SDS011;8350;52.316;10.530;2022-10-29T15:08:39;7.50;;;4.70;;
16478;SDS011;8350;52.316;10.530;2022-10-29T15:14:03;11.45;;;4.88;;
16478;SDS011;8350;52.316;10.530;2022-10-29T15:16:32;8.65;;;4.60;;
16478;SDS011;8350;52.316;10.530;2022-10-29T15:18:59;12.75;;;5.10;;
16478;SDS011;8350;52.316;10.530;2022-10-29T15:21:29;9.50;;;4.70;;
16478;SDS011;8350;52.316;10.530;2022-10-29T15:23:58;13.13;;;4.90;;
16478;SDS011;8350;52.316;10.530;2022-10-29T15:26:30;10.93;;;4.88;;
16478;SDS011;8350;52.316;10.530;2022-10-29T15:28:59;10.40;;;4.82;;
16478;SDS011;8350;52.316;10.530;2022-10-29T15:31:28;12.05;;;4.97;;
16478;SDS011;8350;52.316;10.530;2022-10-29T15:34:00;9.50;;;4.97;;
16478;SDS011;8350;52.316;10.530;2022-10-29T15:36:48;11.93;;;4.85;;
16478;SDS011;8350;52.316;10.530;2022-10-29T15:39:22;6.70;;;4.35;;
16478;SDS011;8350;52.316;10.530;2022-10-29T15:41:55;10.18;;;4.55;;